Time;durP1;ratioP1;P1;durP2;ratioP2;P2;SDS_P1;SDS_P2;PMS_P1;PMS_P2;Temp;Humidity;BMP_temperature;BMP_pressure;BME280_temperature;BME280_humidity;BME280_pressure;Samples;Min_cycle;Max_cycle;Signal;HPM_P1;HPM_P2
2021/10/09 00:01:16;;;;;;;33.53;20.90;;;6.90;99.90;;;;;;5143636;27;20513;-82
2021/10/09 00:03:42;;;;;;;33.83;20.90;;;6.90;99.90;;;;;;5143689;27;20185;-82
2021/10/09 00:06:07;;;;;;;34.57;21.47;;;6.90;99.90;;;;;;5153640;27;20158;-81
2021/10/09 00:08:33;;;;;;;35.80;21.57;;;6.80;99.90;;;;;;5144124;27;20525;-82
2021/10/09 00:11:00;;;;;;;33.20;19.97;;;;;;;;;;5141988;27;20182;-81
2021/10/09 00:13:25;;;;;;;35.07;21.23;;;6.80;99.90;;;;;;5143204;27;20198;-82
2021/10/09 00:15:51;;;;;;;33.10;21.57;;;;;;;;;;5142355;27;20438;-82
2021/10/09 00:18:17;;;;;;;33.80;20.47;;;;;;;;;;5143512;27;20329;-82
2021/10/09 00:20:43;;;;;;;35.30;21.10;;;6.60;99.90;;;;;;5142960;27;20414;-82
2021/10/09 00:23:09;;;;;;;35.67;21.17;;;6.50;99.90;;;;;;5142649;27;20491;-82
2021/10/09 00:25:35;;;;;;;31.03;20.33;;;;;;;;;;5141135;27;20178;-82
2021/10/09 00:28:01;;;;;;;36.63;20.77;;;;;;;;;;5141312;27;20198;-82
2021/10/09 00:30:27;;;;;;;33.17;20.90;;;;;;;;;;5141465;27;20412;-82
2021/10/09 00:32:52;;;;;;;32.93;20.07;;;6.30;99.90;;;;;;5141970;27;20464;-82
2021/10/09 00:35:18;;;;;;;31.50;20.53;;;6.30;99.90;;;;;;5142035;27;20921;-82
2021/10/09 00:37:44;;;;;;;30.77;19.00;;;6.20;99.90;;;;;;5143842;27;20308;-82
2021/10/09 00:40:10;;;;;;;32.07;20.23;;;6.20;99.90;;;;;;5141265;27;20175;-82
2021/10/09 00:42:36;;;;;;;31.90;20.60;;;;;;;;;;5140952;27;20182;-82
2021/10/09 00:45:02;;;;;;;33.33;20.57;;;6.10;99.90;;;;;;5142745;27;20409;-82
2021/10/09 00:47:28;;;;;;;38.00;21.80;;;;;;;;;;5141600;27;20818;-82
2021/10/09 00:49:54;;;;;;;31.20;20.43;;;6.00;99.90;;;;;;5142625;27;20432;-82
2021/10/09 00:52:24;;;;;;;35.43;20.37;;;6.00;99.90;;;;;;5142183;27;20467;-82
2021/10/09 00:54:50;;;;;;;34.77;20.83;;;6.00;99.90;;;;;;5142107;27;20181;-82
2021/10/09 00:57:21;;;;;;;33.93;22.20;;;5.90;99.90;;;;;;5141813;27;20466;-82
2021/10/09 00:59:49;;;;;;;31.47;19.13;;;6.00;99.90;;;;;;5143403;27;20428;-82
2021/10/09 01:02:16;;;;;;;35.20;20.83;;;6.00;99.90;;;;;;5141624;27;20779;-82
2021/10/09 01:04:42;;;;;;;31.67;20.67;;;;;;;;;;5147465;27;20416;-82
2021/10/09 01:07:08;;;;;;;31.83;20.30;;;;;;;;;;5150396;27;20404;-82
2021/10/09 01:09:34;;;;;;;34.63;20.57;;;;;;;;;;5153058;27;20428;-82
2021/10/09 01:12:01;;;;;;;31.47;19.87;;;;;;;;;;5151572;27;20437;-82
2021/10/09 01:14:27;;;;;;;28.93;19.53;;;;;;;;;;5148248;27;20489;-82
2021/10/09 01:16:53;;;;;;;30.63;19.47;;;;;;;;;;5143621;27;20411;-82
2021/10/09 01:19:20;;;;;;;29.50;19.37;;;6.40;99.90;;;;;;5141015;27;20416;-81
2021/10/09 01:21:48;;;;;;;32.73;19.57;;;6.40;99.90;;;;;;5140933;27;20261;-82
2021/10/09 01:24:14;;;;;;;30.40;19.43;;;;;;;;;;5142023;27;20752;-82
2021/10/09 01:26:40;;;;;;;33.37;19.50;;;;;;;;;;5141539;27;20400;-82
2021/10/09 01:29:08;;;;;;;27.03;18.20;;;6.40;99.90;;;;;;5140634;27;20512;-82
2021/10/09 01:31:34;;;;;;;30.07;17.97;;;6.40;99.90;;;;;;5141410;27;20460;-82
2021/10/09 01:34:01;;;;;;;30.10;18.00;;;6.30;99.90;;;;;;5142225;27;20455;-82
2021/10/09 01:36:31;;;;;;;29.17;17.60;;;6.30;99.90;;;;;;5142588;27;20407;-82
2021/10/09 01:38:58;;;;;;;31.07;18.23;;;6.40;99.90;;;;;;5141487;27;20451;-82
2021/10/09 01:41:23;;;;;;;26.77;18.73;;;6.40;99.90;;;;;;5144999;27;20413;-82
2021/10/09 01:43:49;;;;;;;32.10;18.97;;;;;;;;;;5139640;27;21022;-82
2021/10/09 01:46:15;;;;;;;26.17;17.10;;;;;;;;;;5141576;27;20296;-82
2021/10/09 01:48:41;;;;;;;27.37;16.90;;;6.30;99.90;;;;;;5139502;27;20464;-82
2021/10/09 01:51:08;;;;;;;31.67;18.57;;;6.30;99.90;;;;;;5141223;27;20191;-82
2021/10/09 01:53:34;;;;;;;26.37;17.10;;;6.40;99.90;;;;;;5140882;27;20198;-82
2021/10/09 01:56:00;;;;;;;29.37;18.47;;;;;;;;;;5139591;27;20408;-82
2021/10/09 01:58:26;;;;;;;28.53;17.73;;;6.40;99.90;;;;;;5140593;27;20470;-82
2021/10/09 02:00:53;;;;;;;25.57;16.90;;;;;;;;;;5139210;27;20408;-82
2021/10/09 02:03:20;;;;;;;27.10;18.17;;;6.30;99.90;;;;;;5139041;27;20186;-82
2021/10/09 02:05:47;;;;;;;24.23;16.97;;;6.20;99.90;;;;;;5139134;27;20452;-82
2021/10/09 02:08:12;;;;;;;27.80;17.23;;;6.30;99.90;;;;;;5140723;27;20420;-82
2021/10/09 02:13:17;;;;;;;29.20;16.47;;;6.30;99.90;;;;;;5141115;27;20206;-83
2021/10/09 02:15:50;;;;;;;29.30;18.03;;;6.30;99.90;;;;;;5139143;27;20231;-82
2021/10/09 02:26:29;;;;;;;21.90;15.70;;;6.40;99.90;;;;;;5140215;27;20403;-82
2021/10/09 02:28:54;;;;;;;24.90;15.23;;;6.40;99.90;;;;;;5138716;27;20432;-82
2021/10/09 02:31:20;;;;;;;28.27;16.53;;;6.40;99.90;;;;;;5139957;27;20624;-82
2021/10/09 02:33:46;;;;;;;24.43;16.70;;;6.40;99.90;;;;;;5139138;27;20309;-81
2021/10/09 02:36:11;;;;;;;22.50;16.07;;;6.30;99.90;;;;;;5138828;27;20560;-82
2021/10/09 02:38:37;;;;;;;24.97;15.60;;;6.40;99.90;;;;;;5139794;28;20197;-82
2021/10/09 02:41:03;;;;;;;25.60;16.10;;;6.40;99.90;;;;;;5140294;27;20167;-82
2021/10/09 02:43:28;;;;;;;35.63;17.03;;;6.40;99.90;;;;;;5138132;28;20643;-82
2021/10/09 02:45:54;;;;;;;27.20;16.93;;;6.30;99.90;;;;;;5138495;28;20181;-82
2021/10/09 02:48:20;;;;;;;23.87;16.20;;;;;;;;;;5138605;28;20202;-82
2021/10/09 02:50:46;;;;;;;24.03;16.30;;;;;;;;;;5140010;27;20175;-82
2021/10/09 02:53:12;;;;;;;20.77;15.20;;;;;;;;;;5140338;27;20448;-82
2021/10/09 02:55:38;;;;;;;28.93;15.80;;;;;;;;;;5138565;28;20430;-82
2021/10/09 02:58:04;;;;;;;21.67;15.27;;;6.50;99.90;;;;;;5140564;27;20495;-82
2021/10/09 03:00:30;;;;;;;23.80;15.97;;;;;;;;;;5139049;28;20585;-82
2021/10/09 03:02:56;;;;;;;23.83;15.83;;;6.60;99.90;;;;;;5139044;27;20179;-82
2021/10/09 03:05:22;;;;;;;22.53;17.10;;;;;;;;;;5139564;28;20461;-82
2021/10/09 03:07:48;;;;;;;22.97;15.20;;;6.70;99.90;;;;;;5139267;28;20181;-82
2021/10/09 03:10:14;;;;;;;24.30;14.80;;;6.70;99.90;;;;;;5139435;28;20786;-82
2021/10/09 03:12:40;;;;;;;26.00;15.80;;;6.80;99.90;;;;;;5139742;28;20198;-82
2021/10/09 03:15:08;;;;;;;23.17;15.13;;;6.70;99.90;;;;;;5140983;27;20175;-82
2021/10/09 03:17:33;;;;;;;22.90;15.27;;;6.80;99.90;;;;;;5144862;27;20882;-82
2021/10/09 03:19:59;;;;;;;21.93;15.67;;;6.80;99.90;;;;;;5143255;27;20192;-83
2021/10/09 03:22:25;;;;;;;25.57;14.40;;;6.80;99.90;;;;;;5145845;27;20179;-82
2021/10/09 03:24:51;;;;;;;21.47;15.33;;;6.90;99.90;;;;;;5143876;27;20255;-82
2021/10/09 03:27:16;;;;;;;20.27;14.93;;;6.90;99.90;;;;;;5143197;27;20181;-82
2021/10/09 03:29:42;;;;;;;22.00;14.30;;;;;;;;;;5142963;27;20204;-82
2021/10/09 03:32:08;;;;;;;26.20;16.03;;;;;;;;;;5142776;27;20192;-82
2021/10/09 03:34:35;;;;;;;22.97;14.70;;;6.90;99.90;;;;;;5142502;27;20185;-82
2021/10/09 03:37:02;;;;;;;21.27;15.13;;;6.90;99.90;;;;;;5143069;27;20177;-82
2021/10/09 03:39:28;;;;;;;24.30;15.27;;;6.90;99.90;;;;;;5143805;27;20197;-82
2021/10/09 03:41:59;;;;;;;21.63;14.37;;;6.70;99.90;;;;;;5142929;27;20719;-82
2021/10/09 03:44:26;;;;;;;21.00;14.40;;;;;;;;;;5144313;27;20152;-82
2021/10/09 03:47:03;;;;;;;17.67;13.43;;;6.80;99.90;;;;;;5143971;27;20642;-82
2021/10/09 03:55:14;;;;;;;19.23;13.30;;;6.80;99.90;;;;;;5120980;28;20176;-82
2021/10/09 03:57:40;;;;;;;19.43;13.43;;;6.80;99.90;;;;;;5136560;27;20191;-82
2021/10/09 04:00:08;;;;;;;21.80;14.70;;;6.80;99.90;;;;;;5143810;27;20564;-82
2021/10/09 04:02:33;;;;;;;19.13;14.63;;;6.90;99.90;;;;;;5143185;27;20179;-82
2021/10/09 04:04:59;;;;;;;19.20;13.93;;;;;;;;;;5142712;27;20203;-82
2021/10/09 04:07:25;;;;;;;22.30;14.17;;;6.80;99.90;;;;;;5146622;27;20180;-82
2021/10/09 04:09:51;;;;;;;21.00;14.03;;;6.80;99.90;;;;;;5144213;27;20199;-82
2021/10/09 04:12:16;;;;;;;24.33;13.73;;;6.80;99.90;;;;;;5142871;27;20199;-82
2021/10/09 04:14:42;;;;;;;17.33;13.13;;;6.70;99.90;;;;;;5143382;27;20171;-82
2021/10/09 04:17:08;;;;;;;17.00;13.67;;;6.80;99.90;;;;;;5144334;27;20289;-82
2021/10/09 04:19:34;;;;;;;23.87;14.37;;;6.80;99.90;;;;;;5143035;27;20196;-82
2021/10/09 04:22:00;;;;;;;21.00;14.07;;;;;;;;;;5143882;27;20167;-82
2021/10/09 04:24:25;;;;;;;19.20;13.93;;;6.80;99.90;;;;;;5142475;27;20423;-82
2021/10/09 04:26:51;;;;;;;20.10;14.43;;;6.80;99.90;;;;;;5149603;27;20195;-82
2021/10/09 04:29:17;;;;;;;20.93;14.23;;;6.80;99.90;;;;;;5139624;27;20230;-82
2021/10/09 04:31:43;;;;;;;20.93;12.97;;;;;;;;;;5137563;27;20225;-81
2021/10/09 04:34:09;;;;;;;18.30;13.93;;;6.80;99.90;;;;;;5151462;27;20217;-82
2021/10/09 04:36:35;;;;;;;18.13;13.70;;;;;;;;;;5154578;27;20417;-82
2021/10/09 04:39:01;;;;;;;23.57;14.80;;;6.80;99.90;;;;;;5154397;27;20198;-82
2021/10/09 04:41:27;;;;;;;20.27;14.07;;;;;;;;;;5156383;27;20179;-82
2021/10/09 04:43:53;;;;;;;19.13;14.53;;;;;;;;;;5155765;27;20178;-82
2021/10/09 04:46:18;;;;;;;17.57;13.83;;;6.80;99.90;;;;;;5151634;27;20400;-82
2021/10/09 04:48:44;;;;;;;20.83;13.27;;;6.70;99.90;;;;;;5141698;27;20206;-82
2021/10/09 04:51:10;;;;;;;21.90;14.30;;;6.70;99.90;;;;;;5143331;27;20549;-82
2021/10/09 04:53:35;;;;;;;17.27;13.43;;;6.80;99.90;;;;;;5141461;27;20244;-81
2021/10/09 04:56:03;;;;;;;20.43;13.87;;;6.80;99.90;;;;;;5142749;27;20220;-82
2021/10/09 04:58:29;;;;;;;22.00;13.33;;;;;;;;;;5143409;27;20733;-82
2021/10/09 05:00:54;;;;;;;21.03;13.67;;;6.80;99.90;;;;;;5143314;27;20404;-82
2021/10/09 05:03:20;;;;;;;20.23;13.73;;;6.80;99.90;;;;;;5142724;27;20175;-82
2021/10/09 05:05:46;;;;;;;21.10;13.30;;;;;;;;;;5142126;27;20640;-82
2021/10/09 05:08:12;;;;;;;19.67;14.37;;;6.80;99.90;;;;;;5140902;27;20194;-82
2021/10/09 05:10:39;;;;;;;18.20;13.30;;;6.80;99.90;;;;;;5142705;27;20404;-82
2021/10/09 05:13:05;;;;;;;20.77;14.80;;;6.80;99.90;;;;;;5139910;27;20281;-82
2021/10/09 05:15:32;;;;;;;20.93;13.23;;;6.80;99.90;;;;;;5141308;27;20400;-82
2021/10/09 05:17:57;;;;;;;19.83;13.73;;;6.80;99.90;;;;;;5140297;27;20266;-83
2021/10/09 05:20:23;;;;;;;20.37;14.50;;;6.80;99.90;;;;;;5141294;27;20440;-82
2021/10/09 05:22:49;;;;;;;20.47;14.03;;;6.80;99.90;;;;;;5142151;27;20183;-82
2021/10/09 05:25:15;;;;;;;24.03;14.67;;;6.90;99.90;;;;;;5140902;27;20209;-82
2021/10/09 05:27:49;;;;;;;20.17;13.70;;;6.90;99.90;;;;;;5142385;27;20170;-82
2021/10/09 05:30:15;;;;;;;21.07;13.63;;;6.90;99.90;;;;;;5137504;27;20184;-82
2021/10/09 05:33:00;;;;;;;23.23;14.03;;;6.90;99.90;;;;;;5138345;27;20215;-82
2021/10/09 05:35:26;;;;;;;22.33;13.50;;;6.90;99.90;;;;;;5140279;27;20193;-82
2021/10/09 05:37:51;;;;;;;21.67;13.03;;;6.80;99.90;;;;;;5138601;27;20415;-82
2021/10/09 05:40:17;;;;;;;19.10;14.43;;;6.80;99.90;;;;;;5139757;27;20412;-82
2021/10/09 05:42:43;;;;;;;22.57;13.60;;;6.80;99.90;;;;;;5140312;27;20657;-82
2021/10/09 05:45:08;;;;;;;18.03;13.13;;;6.80;99.90;;;;;;5141847;27;20237;-82
2021/10/09 05:47:37;;;;;;;18.30;12.93;;;;;;;;;;5141721;27;20189;-82
2021/10/09 05:50:07;;;;;;;18.40;13.03;;;6.80;99.90;;;;;;5142539;27;20191;-82
2021/10/09 05:52:47;;;;;;;18.37;13.13;;;6.80;99.90;;;;;;5141359;27;20466;-82
2021/10/09 05:55:28;;;;;;;18.00;14.03;;;;;;;;;;5143065;27;20788;-82
2021/10/09 05:58:15;;;;;;;18.00;13.40;;;6.80;99.90;;;;;;5141511;27;20416;-82
2021/10/09 06:44:58;;;;;;;20.90;12.50;;;7.10;99.90;;;;;;5135842;27;20207;-82
2021/10/09 06:48:10;;;;;;;14.77;11.00;;;7.20;99.90;;;;;;5145756;28;20424;-83
2021/10/09 07:01:09;;;;;;;17.37;11.00;;;7.60;99.90;;;;;;5145739;27;20162;-82
2021/10/09 07:03:35;;;;;;;16.27;11.00;;;7.80;99.90;;;;;;5147089;27;20179;-81
2021/10/09 07:06:01;;;;;;;16.43;11.87;;;7.90;99.90;;;;;;5147100;27;20179;-83
2021/10/09 07:08:26;;;;;;;13.70;10.77;;;8.00;99.90;;;;;;5147450;27;20194;-82
2021/10/09 07:10:57;;;;;;;18.10;10.60;;;8.00;99.90;;;;;;5147146;27;20179;-82
2021/10/09 07:13:23;;;;;;;14.20;10.07;;;;;;;;;;5148513;27;20187;-82
2021/10/09 07:15:49;;;;;;;15.07;10.40;;;8.10;99.90;;;;;;5146945;27;20419;-81
2021/10/09 07:18:15;;;;;;;20.40;11.00;;;8.10;99.90;;;;;;5145823;27;20199;-82
2021/10/09 07:20:42;;;;;;;14.77;11.47;;;8.10;99.90;;;;;;5145131;27;20211;-81
2021/10/09 07:23:11;;;;;;;14.10;11.20;;;8.10;99.90;;;;;;5147038;27;20171;-81
2021/10/09 07:25:37;;;;;;;14.77;11.00;;;8.30;99.90;;;;;;5144629;27;20550;-81
2021/10/09 07:28:03;;;;;;;13.13;9.90;;;8.30;99.90;;;;;;5143788;27;20199;-83
2021/10/09 07:30:30;;;;;;;13.97;9.93;;;8.40;99.90;;;;;;5142682;27;20187;-81
2021/10/09 07:32:55;;;;;;;15.63;10.33;;;8.40;99.90;;;;;;5142972;27;20211;-81
2021/10/09 07:35:22;;;;;;;15.90;10.93;;;8.80;99.90;;;;;;5143291;27;20174;-82
2021/10/09 07:37:48;;;;;;;14.53;10.27;;;9.10;99.90;;;;;;5144386;27;20254;-82
2021/10/09 07:40:14;;;;;;;12.80;10.10;;;9.20;99.90;;;;;;5144731;27;20552;-83
2021/10/09 07:42:40;;;;;;;12.83;9.43;;;9.20;99.90;;;;;;5146976;27;20175;-83
2021/10/09 07:45:06;;;;;;;14.93;10.37;;;9.10;99.90;;;;;;5145431;27;20265;-84
2021/10/09 07:47:32;;;;;;;12.70;9.50;;;9.00;99.90;;;;;;5146229;27;20201;-82
2021/10/09 07:49:57;;;;;;;15.57;10.93;;;8.90;99.90;;;;;;5146277;27;20198;-81
2021/10/09 07:52:23;;;;;;;14.93;10.17;;;9.20;99.90;;;;;;5154796;27;20258;-81
2021/10/09 07:54:49;;;;;;;13.63;10.10;;;9.30;99.90;;;;;;5157308;27;20179;-81
2021/10/09 07:57:15;;;;;;;14.00;9.23;;;9.40;99.90;;;;;;5152126;27;20263;-82
2021/10/09 07:59:40;;;;;;;16.90;9.80;;;9.20;99.90;;;;;;5153396;27;20195;-81
2021/10/09 08:02:06;;;;;;;14.80;9.33;;;9.20;99.90;;;;;;5156816;27;20179;-81
2021/10/09 08:04:32;;;;;;;18.50;9.90;;;9.40;99.90;;;;;;5148262;27;20175;-82
2021/10/09 08:06:58;;;;;;;15.03;9.43;;;9.50;99.90;;;;;;5146117;27;20255;-82
2021/10/09 08:09:31;;;;;;;14.20;9.07;;;9.50;99.90;;;;;;5144846;27;20195;-82
2021/10/09 08:11:57;;;;;;;14.03;9.50;;;9.90;99.90;;;;;;5145916;27;20162;-82
2021/10/09 08:14:22;;;;;;;12.77;9.63;;;10.30;99.90;;;;;;5143577;27;20266;-82
2021/10/09 08:16:48;;;;;;;12.73;9.17;;;10.80;99.90;;;;;;5141949;27;20607;-82
2021/10/09 08:19:14;;;;;;;11.97;8.53;;;11.90;99.90;;;;;;5142912;27;20183;-82
2021/10/09 08:21:42;;;;;;;12.73;9.47;;;12.50;99.90;;;;;;5141779;27;20174;-82
2021/10/09 08:27:17;;;;;;;14.87;8.93;;;11.60;99.90;;;;;;5143764;27;20187;-82
2021/10/09 08:40:10;;;;;;;17.37;8.70;;;11.10;99.90;;;;;;5145646;27;20174;-84
2021/10/09 08:42:36;;;;;;;13.00;9.60;;;12.10;99.90;;;;;;5143923;27;20182;-85
2021/10/09 08:45:04;;;;;;;14.87;9.53;;;13.30;99.90;;;;;;5145595;27;20179;-83
2021/10/09 08:47:33;;;;;;;14.43;10.03;;;14.00;99.90;;;;;;5144389;27;20235;-84
2021/10/09 08:49:59;;;;;;;18.30;10.53;;;14.70;99.90;;;;;;5143251;27;20195;-84
2021/10/09 08:52:26;;;;;;;13.17;10.13;;;15.20;99.90;;;;;;5147473;27;20230;-83
2021/10/09 08:54:51;;;;;;;17.70;10.07;;;15.20;99.90;;;;;;5142122;27;20195;-83
2021/10/09 08:57:22;;;;;;;13.60;9.80;;;15.00;99.90;;;;;;5141376;27;20172;-83
2021/10/09 08:59:55;;;;;;;14.33;9.93;;;14.50;99.90;;;;;;5141871;27;20578;-83
2021/10/09 09:26:32;;;;;;;14.83;10.70;;;14.40;99.90;;;;;;5140527;27;20177;-82
2021/10/09 09:40:09;;;;;;;12.17;10.57;;;15.90;99.90;;;;;;5139521;27;20179;-82
2021/10/09 09:42:47;;;;;;;12.07;10.50;;;15.50;99.90;;;;;;5142667;27;20257;-83
2021/10/09 09:45:21;;;;;;;16.90;10.80;;;15.50;99.90;;;;;;5140677;27;20651;-84
2021/10/09 09:47:47;;;;;;;14.80;10.80;;;15.60;99.90;;;;;;5145734;27;20178;-83
2021/10/09 09:50:14;;;;;;;11.83;10.50;;;15.90;99.90;;;;;;5144723;27;20176;-84
2021/10/09 09:52:42;;;;;;;13.40;11.40;;;15.80;99.90;;;;;;5142132;27;20213;-83
2021/10/09 09:55:11;;;;;;;13.97;10.40;;;15.90;99.90;;;;;;5140613;27;20175;-81
2021/10/09 09:57:38;;;;;;;14.43;10.47;;;16.00;99.90;;;;;;5141515;27;20174;-81
2021/10/09 10:00:07;;;;;;;12.33;9.70;;;15.90;99.90;;;;;;5140021;27;20278;-81
2021/10/09 10:02:38;;;;;;;11.70;9.73;;;16.10;99.90;;;;;;5140372;27;20258;-81
2021/10/09 10:05:04;;;;;;;16.67;9.83;;;16.10;99.90;;;;;;5133458;27;20171;-82
2021/10/09 10:07:33;;;;;;;12.20;9.47;;;16.10;99.90;;;;;;5132057;27;20180;-82
2021/10/09 10:09:59;;;;;;;16.20;9.50;;;16.00;99.90;;;;;;5122484;27;20199;-82
2021/10/09 10:12:25;;;;;;;10.53;8.57;;;16.00;99.90;;;;;;5117599;27;20191;-79
2021/10/09 10:14:52;;;;;;;10.70;9.60;;;16.30;99.90;;;;;;5114559;28;20172;-83
2021/10/09 10:17:37;;;;;;;14.67;8.90;;;16.40;99.90;;;;;;5127674;27;20171;-82
2021/10/09 10:20:19;;;;;;;10.63;8.50;;;16.80;99.90;;;;;;5139743;27;20222;-81
2021/10/09 10:22:45;;;;;;;9.27;8.27;;;16.70;99.90;;;;;;5131887;27;20319;-81
2021/10/09 10:25:31;;;;;;;13.00;9.50;;;16.60;99.90;;;;;;5130915;27;20181;-80
2021/10/09 10:27:58;;;;;;;10.17;8.33;;;16.70;99.90;;;;;;5130400;27;20183;-80
2021/10/09 10:30:26;;;;;;;13.70;9.13;;;17.00;99.90;;;;;;5120015;28;20569;-82
2021/10/09 10:32:56;;;;;;;9.33;8.37;;;17.30;99.90;;;;;;5123587;27;20252;-80
2021/10/09 10:35:29;;;;;;;10.33;8.87;;;16.90;99.90;;;;;;5124451;27;20191;-80
2021/10/09 10:38:19;;;;;;;12.60;7.80;;;16.90;99.90;;;;;;5119017;28;20673;-80
2021/10/09 10:40:50;;;;;;;9.80;8.20;;;16.90;99.90;;;;;;5085556;28;20179;-81
2021/10/09 10:46:32;;;;;;;10.47;8.83;;;17.80;99.90;;;;;;5135020;27;20217;-83
2021/10/09 10:49:02;;;;;;;11.97;8.63;;;18.20;99.90;;;;;;5132435;28;20216;-80
2021/10/09 10:57:02;;;;;;;8.53;7.63;;;17.50;99.90;;;;;;5132155;28;20580;-81
2021/10/09 10:59:30;;;;;;;10.07;8.43;;;17.70;99.90;;;;;;5137893;28;20191;-84
2021/10/09 11:02:36;;;;;;;11.13;8.30;;;17.60;99.90;;;;;;5129649;28;20179;-80
2021/10/09 11:05:04;;;;;;;9.67;8.20;;;18.00;99.90;;;;;;5128451;28;20164;-80
2021/10/09 11:07:35;;;;;;;9.40;8.37;;;18.00;99.90;;;;;;5123047;28;20173;-82
2021/10/09 11:10:16;;;;;;;11.33;7.37;;;18.00;99.90;;;;;;5127658;28;20282;-82
2021/10/09 11:12:43;;;;;;;10.23;7.90;;;18.10;99.90;;;;;;5139216;28;20245;-81
2021/10/09 11:15:26;;;;;;;10.60;7.83;;;18.80;99.90;;;;;;5129316;28;20175;-82
2021/10/09 11:17:55;;;;;;;10.63;7.43;;;19.10;99.90;;;;;;5127739;28;20243;-79
2021/10/09 11:20:23;;;;;;;10.27;8.60;;;19.60;99.90;;;;;;5127271;28;20176;-81
2021/10/09 11:22:50;;;;;;;11.90;8.33;;;19.50;99.90;;;;;;5118312;28;20187;-80
2021/10/09 11:25:26;;;;;;;10.83;7.93;;;19.80;99.90;;;;;;5119632;28;20516;-80
2021/10/09 11:27:52;;;;;;;9.13;8.20;;;19.90;99.90;;;;;;5132516;28;20177;-79
2021/10/09 11:30:19;;;;;;;9.33;7.40;;;20.00;99.90;;;;;;5115035;28;20556;-79
2021/10/09 11:32:45;;;;;;;10.50;7.57;;;19.20;99.90;;;;;;5115050;28;20213;-80
2021/10/09 11:35:13;;;;;;;10.43;7.60;;;18.70;99.90;;;;;;5125731;27;20168;-80
2021/10/09 11:37:52;;;;;;;14.30;9.37;;;18.30;99.90;;;;;;5140535;27;20215;-80
2021/10/09 11:40:49;;;;;;;11.23;8.30;;;18.30;99.90;;;;;;5141666;27;20190;-79
2021/10/09 11:45:47;;;;;;;11.20;7.80;;;18.70;99.90;;;;;;5121029;28;20176;-80
2021/10/09 11:56:22;;;;;;;10.10;7.43;;;18.90;99.90;;;;;;5130103;27;20176;-79
2021/10/09 11:58:54;;;;;;;10.00;8.13;;;19.20;99.90;;;;;;5142404;27;20259;-79
2021/10/09 12:01:45;;;;;;;11.27;8.53;;;19.20;98.60;;;;;;5144369;27;20157;-79
2021/10/09 12:04:19;;;;;;;9.40;8.40;;;19.40;99.90;;;;;;5142268;27;20165;-79
2021/10/09 12:06:47;;;;;;;11.90;8.80;;;20.10;98.60;;;;;;5133999;27;20233;-79
2021/10/09 12:09:14;;;;;;;10.27;8.17;;;20.40;98.50;;;;;;5118535;28;20245;-79
2021/10/09 12:11:41;;;;;;;12.60;8.43;;;21.10;96.20;;;;;;5119925;28;20172;-79
2021/10/09 12:14:09;;;;;;;11.80;8.87;;;21.30;99.00;;;;;;5118430;28;20208;-79
2021/10/09 12:16:46;;;;;;;10.43;9.37;;;21.90;95.30;;;;;;5118571;28;20181;-79
2021/10/09 12:19:16;;;;;;;11.63;8.97;;;21.50;94.30;;;;;;5133747;27;20191;-79
2021/10/09 12:21:51;;;;;;;12.40;9.20;;;21.60;96.10;;;;;;5135830;27;20172;-80
2021/10/09 12:24:26;;;;;;;13.23;10.03;;;21.40;94.30;;;;;;5119803;28;20167;-78
2021/10/09 12:27:19;;;;;;;13.07;10.03;;;20.30;94.50;;;;;;5118692;28;20210;-80
2021/10/09 12:30:04;;;;;;;12.63;9.60;;;19.50;95.50;;;;;;5115043;28;20296;-80
2021/10/09 12:32:38;;;;;;;11.83;9.37;;;19.40;95.50;;;;;;5119321;28;20266;-79
2021/10/09 12:35:10;;;;;;;11.57;9.23;;;19.80;96.20;;;;;;5118534;27;20168;-79
2021/10/09 12:37:38;;;;;;;10.27;8.77;;;19.90;94.90;;;;;;5138876;27;20163;-79
2021/10/09 12:40:16;;;;;;;11.03;9.17;;;19.40;94.20;;;;;;5138685;27;20183;-79
2021/10/09 12:42:45;;;;;;;11.47;8.67;;;19.70;94.30;;;;;;5135721;27;20180;-79
2021/10/09 12:45:10;;;;;;;10.33;7.40;;;19.90;93.30;;;;;;5118618;28;20199;-79
2021/10/09 12:47:36;;;;;;;11.20;8.47;;;20.60;91.10;;;;;;5118847;28;20172;-79
2021/10/09 12:50:02;;;;;;;10.20;8.30;;;21.00;90.80;;;;;;5117915;27;20230;-79
2021/10/09 12:52:28;;;;;;;14.20;8.07;;;21.60;90.30;;;;;;5129226;27;20167;-79
2021/10/09 12:54:53;;;;;;;12.83;8.80;;;22.40;90.60;;;;;;5130215;27;20187;-80
2021/10/09 12:57:19;;;;;;;12.37;7.80;;;22.60;86.50;;;;;;5133551;27;20175;-79
2021/10/09 12:59:45;;;;;;;9.47;7.10;;;22.30;82.70;;;;;;5120737;27;20202;-79
2021/10/09 13:02:10;;;;;;;8.53;7.17;;;22.00;83.00;;;;;;5135103;27;20620;-79
2021/10/09 13:04:37;;;;;;;12.23;8.37;;;21.90;81.30;;;;;;5133724;27;20179;-79
2021/10/09 13:07:03;;;;;;;9.97;7.90;;;21.90;83.90;;;;;;5134953;27;20189;-78
2021/10/09 13:09:29;;;;;;;11.47;8.10;;;22.70;85.20;;;;;;5135923;27;20215;-78
2021/10/09 13:11:59;;;;;;;11.17;8.07;;;23.40;84.40;;;;;;5116300;27;20189;-78
2021/10/09 13:14:25;;;;;;;9.23;7.23;;;23.40;78.50;;;;;;5114255;28;20201;-79
2021/10/09 13:16:51;;;;;;;8.33;7.17;;;22.90;77.20;;;;;;5117899;28;20179;-79
2021/10/09 13:19:17;;;;;;;9.20;7.40;;;23.20;76.50;;;;;;5116509;28;20233;-79
2021/10/09 13:21:42;;;;;;;12.97;7.77;;;23.60;77.20;;;;;;5116342;28;20181;-79
2021/10/09 13:24:09;;;;;;;11.53;7.97;;;23.50;76.10;;;;;;5119300;28;20607;-78
2021/10/09 13:26:35;;;;;;;8.57;7.30;;;23.00;74.40;;;;;;5133974;27;20261;-79
2021/10/09 13:29:02;;;;;;;10.87;7.43;;;23.00;75.20;;;;;;5140063;27;20203;-78
2021/10/09 13:31:28;;;;;;;11.93;7.23;;;22.80;72.30;;;;;;5142292;27;20190;-78
2021/10/09 13:33:56;;;;;;;10.83;7.63;;;22.20;74.50;;;;;;5140221;27;20206;-79
2021/10/09 13:36:22;;;;;;;10.77;7.07;;;21.60;73.30;;;;;;5139766;27;20254;-81
2021/10/09 13:38:47;;;;;;;7.60;6.70;;;21.70;74.90;;;;;;5141027;27;20223;-81
2021/10/09 13:41:13;;;;;;;11.47;7.87;;;21.80;74.80;;;;;;5132710;27;20179;-79
2021/10/09 13:43:39;;;;;;;12.53;7.73;;;21.80;74.90;;;;;;5117221;28;20188;-80
2021/10/09 13:46:06;;;;;;;11.97;7.97;;;22.00;76.10;;;;;;5117310;28;20229;-80
2021/10/09 13:48:31;;;;;;;9.33;7.33;;;21.80;73.90;;;;;;5120154;27;20211;-81
2021/10/09 13:50:57;;;;;;;9.43;7.50;;;19.70;77.00;;;;;;5133017;27;20613;-81
2021/10/09 13:53:23;;;;;;;9.17;7.27;;;17.30;82.80;;;;;;5120180;28;20207;-82
2021/10/09 13:55:50;;;;;;;9.40;7.47;;;15.70;88.80;;;;;;5133691;27;20184;-80
2021/10/09 13:58:16;;;;;;;8.47;6.70;;;14.80;90.50;;;;;;5139833;27;20253;-80
2021/10/09 14:00:44;;;;;;;9.00;6.93;;;14.00;91.80;;;;;;5129246;27;20175;-80
2021/10/09 14:03:10;;;;;;;12.00;6.43;;;13.70;93.00;;;;;;5124127;27;20183;-79
2021/10/09 14:05:36;;;;;;;8.03;5.67;;;13.50;93.30;;;;;;5119351;28;20183;-82
2021/10/09 14:08:03;;;;;;;7.27;5.70;;;13.40;94.00;;;;;;5115521;28;20266;-81
2021/10/09 14:10:29;;;;;;;9.27;6.33;;;13.30;94.00;;;;;;5126462;27;20176;-82
2021/10/09 14:12:57;;;;;;;12.23;6.67;;;13.20;94.00;;;;;;5129248;27;20225;-80
2021/10/09 14:15:24;;;;;;;8.23;6.17;;;13.20;95.00;;;;;;5119968;27;20178;-81
2021/10/09 14:17:50;;;;;;;11.73;6.13;;;13.00;95.30;;;;;;5130204;27;20195;-80
2021/10/09 14:20:16;;;;;;;9.27;6.10;;;12.90;96.00;;;;;;5132779;27;20296;-80
2021/10/09 14:22:42;;;;;;;9.23;6.37;;;12.80;95.60;;;;;;5115675;28;20660;-83
2021/10/09 14:25:10;;;;;;;7.50;5.80;;;12.60;96.40;;;;;;5131571;27;20556;-81
2021/10/09 14:27:37;;;;;;;8.63;6.27;;;12.50;96.80;;;;;;5136247;27;20570;-81
2021/10/09 14:30:04;;;;;;;10.83;6.50;;;12.50;97.20;;;;;;5123145;27;20231;-82
2021/10/09 14:32:30;;;;;;;10.43;6.90;;;12.40;97.30;;;;;;5123648;27;20199;-80
2021/10/09 14:34:55;;;;;;;9.53;6.30;;;12.30;97.10;;;;;;5125140;27;20190;-81
2021/10/09 14:37:21;;;;;;;9.07;7.00;;;12.30;98.50;;;;;;5114896;28;20179;-79
2021/10/09 14:39:47;;;;;;;10.27;5.97;;;12.30;98.80;;;;;;5114540;28;20199;-81
2021/10/09 14:42:13;;;;;;;15.87;8.83;;;12.20;98.10;;;;;;5119114;28;20171;-83
2021/10/09 14:44:39;;;;;;;10.10;7.63;;;12.20;98.50;;;;;;5118093;28;20270;-82
2021/10/09 15:19:54;;;;;;;13.20;8.23;;;11.80;99.90;;;;;;5121659;28;20252;-84
2021/10/09 15:22:20;;;;;;;18.83;8.23;;;11.80;99.90;;;;;;5128468;27;20195;-82
2021/10/09 15:24:45;;;;;;;14.00;9.20;;;11.80;99.90;;;;;;5123914;27;20170;-82
2021/10/09 15:27:11;;;;;;;9.80;8.00;;;11.70;99.90;;;;;;5132460;27;20175;-82
2021/10/09 15:29:36;;;;;;;13.63;8.07;;;11.70;99.90;;;;;;5128315;27;20202;-82
2021/10/09 15:32:02;;;;;;;13.50;8.37;;;11.70;99.90;;;;;;5120526;28;20195;-81
2021/10/09 15:34:30;;;;;;;12.83;8.30;;;11.60;99.90;;;;;;5133866;27;20195;-79
2021/10/09 15:36:55;;;;;;;11.17;8.37;;;11.60;99.90;;;;;;5131987;27;20185;-81
2021/10/09 15:39:21;;;;;;;15.00;8.43;;;11.60;99.90;;;;;;5138473;27;20195;-81
2021/10/09 15:41:46;;;;;;;14.73;7.97;;;11.60;99.90;;;;;;5122372;27;20206;-81
2021/10/09 15:44:12;;;;;;;14.10;8.57;;;11.50;99.90;;;;;;5126938;27;20239;-80
2021/10/09 15:46:40;;;;;;;11.87;8.30;;;11.50;99.90;;;;;;5134537;27;20657;-84